KTPL/TPL METAR and TAF weather

Enter ICAO airport designator
Station Type Date Time Source
KTPL METAR 2019/10/15 02:51 UTC NOAA

KTPL 150251Z AUTO 12012KT 10SM CLR 24/23 A2995 RMK AO2 SLP132 T02440233 53009


Station Type Date Time Source
KTPL Decoded METAR 2019/10/15 02:51 UTC NOAA

Temple, Draughon-Miller Central Texas Regional Airport, TX, United States (KTPL) 31-09N 097-24W
Oct 14, 2019 - 10:51 PM EDT / 2019.10.15 0251 UTC
Wind: from the ESE (120 degrees) at 14 MPH (12 KT):0
Visibility: 10 mile(s):0
Sky conditions: clear
Temperature: 75.9 F (24.4 C)
Dew Point: 73.9 F (23.3 C)
Relative Humidity: 93%
Pressure (altimeter): 29.95 in. Hg (1014 hPa)
Pressure tendency: 0.03 inches (0.9 hPa) higher than three hours ago
ob: KTPL 150251Z AUTO 12012KT 10SM CLR 24/23 A2995 RMK AO2 SLP132 T02440233 53009
cycle: 3

Station Type Date Time Source
KTPL TAF UTC NOAA

Error!

Example: see airport list